DHK868 KCVG-EGNX
Flight info
| Callsign | DHK868 |
|---|---|
| Flight time | N/A |
| Altitude | 31000 |
| Route | HAGOL5 PLASH DCT DJB DCT DKK DCT KB03E/N0481F330 DCT 47N060W DCT YYT DCT NICSO/M084F340 DCT 48N050W 50N040W 52N030W 54N020W DCT DOGAL DCT BEXET/N0476F350 DCT DEXEN UY124 DOLOP |
| Aircraft | B77L/H-SDE1E2E3FGHIJ2J3J4J5M1RWXY/LB1D1 |
Departure
| Time | N/A |
|---|---|
| Airport | Cincinnati Northern Kentucky International Airport (KCVG) |
Arrival
| Time | 2026-05-05 20:10 |
|---|---|
| Airport | East Midlands Airport (EGNX) |
| Time | Latitude | Longitude | Altitude | Speed | Heading |
|---|---|---|---|---|---|
| 2026-05-05 19:36 | 53.40542 | -6.57108 | 35049 ft | 499 kts | 101° |
| 2026-05-05 19:36 | 53.39899 | -6.51401 | 35050 ft | 498 kts | 101° |
| 2026-05-05 19:37 | 53.38604 | -6.39983 | 35048 ft | 498 kts | 101° |
| 2026-05-05 19:37 | 53.37298 | -6.28572 | 35050 ft | 498 kts | 101° |
| 2026-05-05 19:38 | 53.35982 | -6.17177 | 35049 ft | 498 kts | 102° |
| 2026-05-05 19:38 | 53.34656 | -6.05791 | 35047 ft | 498 kts | 102° |
| 2026-05-05 19:39 | 53.33320 | -5.94421 | 35048 ft | 498 kts | 102° |
| 2026-05-05 19:39 | 53.31974 | -5.83054 | 35049 ft | 498 kts | 102° |
| 2026-05-05 19:40 | 53.30626 | -5.71770 | 35048 ft | 498 kts | 102° |
| 2026-05-05 19:40 | 53.29264 | -5.60432 | 35048 ft | 498 kts | 102° |
| 2026-05-05 19:41 | 53.27985 | -5.49073 | 35047 ft | 497 kts | 97° |
| 2026-05-05 19:41 | 53.27607 | -5.37546 | 35056 ft | 497 kts | 92° |
| 2026-05-05 19:42 | 53.27342 | -5.25989 | 35049 ft | 497 kts | 92° |
| 2026-05-05 19:42 | 53.26998 | -5.14441 | 35051 ft | 497 kts | 93° |
| 2026-05-05 19:43 | 53.26612 | -5.02898 | 35046 ft | 498 kts | 93° |
| 2026-05-05 19:43 | 53.26215 | -4.91354 | 35050 ft | 498 kts | 93° |
| 2026-05-05 19:44 | 53.25814 | -4.79814 | 35048 ft | 497 kts | 94° |
| 2026-05-05 19:44 | 53.25411 | -4.68349 | 35050 ft | 497 kts | 93° |
| 2026-05-05 19:45 | 53.25022 | -4.56819 | 35051 ft | 497 kts | 93° |
| 2026-05-05 19:45 | 53.24626 | -4.45273 | 35049 ft | 497 kts | 94° |
| 2026-05-05 19:46 | 53.24216 | -4.33751 | 35049 ft | 496 kts | 94° |
| 2026-05-05 19:46 | 53.23796 | -4.22305 | 35049 ft | 496 kts | 94° |
| 2026-05-05 19:47 | 53.23363 | -4.10806 | 35045 ft | 496 kts | 94° |
| 2026-05-05 19:47 | 53.22921 | -3.99309 | 35045 ft | 496 kts | 94° |
| 2026-05-05 19:48 | 53.22452 | -3.87798 | 35038 ft | 496 kts | 94° |
| 2026-05-05 19:48 | 53.21970 | -3.76372 | 35041 ft | 496 kts | 94° |
| 2026-05-05 19:49 | 53.21460 | -3.64863 | 35035 ft | 496 kts | 96° |
| 2026-05-05 19:49 | 53.20237 | -3.53488 | 34301 ft | 507 kts | 103° |
| 2026-05-05 19:49 | 53.19440 | -3.47729 | 33448 ft | 508 kts | 104° |
| 2026-05-05 19:50 | 53.18630 | -3.42008 | 32543 ft | 506 kts | 104° |
| 2026-05-05 19:50 | 53.17829 | -3.36321 | 31663 ft | 503 kts | 104° |
| 2026-05-05 19:50 | 53.17048 | -3.30711 | 30743 ft | 504 kts | 104° |
| 2026-05-05 19:50 | 53.16265 | -3.25024 | 30055 ft | 500 kts | 104° |
| 2026-05-05 19:51 | 53.15497 | -3.19413 | 29343 ft | 494 kts | 104° |
| 2026-05-05 19:51 | 53.14739 | -3.13871 | 28734 ft | 487 kts | 104° |
| 2026-05-05 19:51 | 53.13988 | -3.08397 | 28142 ft | 481 kts | 104° |
| 2026-05-05 19:51 | 53.13244 | -3.02994 | 27570 ft | 475 kts | 104° |
| 2026-05-05 19:52 | 53.12505 | -2.97654 | 26991 ft | 470 kts | 104° |
| 2026-05-05 19:52 | 53.11772 | -2.92382 | 26430 ft | 465 kts | 104° |
| 2026-05-05 19:52 | 53.11043 | -2.87162 | 25863 ft | 461 kts | 104° |
| 2026-05-05 19:52 | 53.10319 | -2.81991 | 25317 ft | 457 kts | 104° |
| 2026-05-05 19:53 | 53.09596 | -2.76847 | 24777 ft | 453 kts | 104° |
| 2026-05-05 19:53 | 53.08888 | -2.71825 | 24248 ft | 450 kts | 104° |
| 2026-05-05 19:53 | 53.08173 | -2.66774 | 23717 ft | 447 kts | 104° |
| 2026-05-05 19:53 | 53.07463 | -2.61767 | 23099 ft | 444 kts | 104° |
| 2026-05-05 19:54 | 53.06752 | -2.56775 | 22531 ft | 440 kts | 104° |
| 2026-05-05 19:54 | 53.06049 | -2.51854 | 22002 ft | 436 kts | 104° |
| 2026-05-05 19:54 | 53.05350 | -2.46974 | 21485 ft | 432 kts | 104° |
| 2026-05-05 19:54 | 53.04657 | -2.42141 | 20974 ft | 428 kts | 104° |
| 2026-05-05 19:55 | 53.03966 | -2.37345 | 20471 ft | 424 kts | 104° |
| 2026-05-05 19:55 | 53.03281 | -2.32605 | 19994 ft | 420 kts | 103° |
| 2026-05-05 19:55 | 53.02879 | -2.27829 | 19488 ft | 417 kts | 90° |
| 2026-05-05 19:55 | 53.03068 | -2.23040 | 19026 ft | 413 kts | 84° |
| 2026-05-05 19:56 | 53.03347 | -2.18301 | 18552 ft | 410 kts | 84° |
| 2026-05-05 19:56 | 53.03599 | -2.13655 | 18041 ft | 407 kts | 85° |
| 2026-05-05 19:56 | 53.03816 | -2.08976 | 17514 ft | 404 kts | 85° |
| 2026-05-05 19:56 | 53.04006 | -2.04332 | 17005 ft | 401 kts | 86° |
| 2026-05-05 19:57 | 53.04183 | -1.99727 | 16523 ft | 397 kts | 86° |
| 2026-05-05 19:57 | 53.04297 | -1.96708 | 16204 ft | 394 kts | 86° |
| 2026-05-05 19:57 | 53.04524 | -1.90661 | 15582 ft | 389 kts | 86° |
| 2026-05-05 19:57 | 53.04691 | -1.86197 | 14974 ft | 383 kts | 85° |
| 2026-05-05 19:58 | 53.04855 | -1.81777 | 14419 ft | 383 kts | 85° |
| 2026-05-05 19:58 | 53.05019 | -1.77371 | 13935 ft | 381 kts | 85° |
| 2026-05-05 19:58 | 53.05179 | -1.72997 | 13412 ft | 378 kts | 85° |
| 2026-05-05 19:58 | 53.05336 | -1.68658 | 12914 ft | 375 kts | 85° |
| 2026-05-05 19:59 | 53.05451 | -1.64346 | 12434 ft | 371 kts | 88° |
| 2026-05-05 19:59 | 53.05455 | -1.60078 | 11976 ft | 368 kts | 89° |
| 2026-05-05 19:59 | 53.05427 | -1.55853 | 11515 ft | 364 kts | 89° |
| 2026-05-05 19:59 | 53.05400 | -1.51664 | 11080 ft | 360 kts | 89° |
| 2026-05-05 20:00 | 53.05381 | -1.47573 | 10929 ft | 347 kts | 89° |
| 2026-05-05 20:00 | 53.05371 | -1.43673 | 10778 ft | 336 kts | 88° |
| 2026-05-05 20:00 | 53.05362 | -1.39851 | 10625 ft | 325 kts | 88° |
| 2026-05-05 20:00 | 53.05353 | -1.36160 | 10502 ft | 314 kts | 88° |
| 2026-05-05 20:01 | 53.05263 | -1.32615 | 10342 ft | 299 kts | 101° |
| 2026-05-05 20:01 | 53.04339 | -1.29645 | 10232 ft | 287 kts | 137° |
| 2026-05-05 20:01 | 53.02664 | -1.28138 | 10118 ft | 271 kts | 174° |
| 2026-05-05 20:01 | 53.00807 | -1.28461 | 10078 ft | 275 kts | 203° |
| 2026-05-05 20:02 | 52.99140 | -1.30063 | 9766 ft | 279 kts | 228° |
| 2026-05-05 20:02 | 52.98149 | -1.32722 | 9407 ft | 268 kts | 257° |
| 2026-05-05 20:02 | 52.97999 | -1.35732 | 9097 ft | 260 kts | 283° |
| 2026-05-05 20:02 | 52.98577 | -1.38493 | 8822 ft | 252 kts | 293° |
| 2026-05-05 20:03 | 52.99240 | -1.41232 | 8539 ft | 259 kts | 292° |
| 2026-05-05 20:03 | 52.99905 | -1.44035 | 8259 ft | 261 kts | 292° |
| 2026-05-05 20:03 | 53.00493 | -1.46799 | 8118 ft | 249 kts | 281° |
| 2026-05-05 20:03 | 53.00321 | -1.49581 | 7987 ft | 244 kts | 248° |
| 2026-05-05 20:04 | 52.99245 | -1.51778 | 7561 ft | 253 kts | 213° |
| 2026-05-05 20:04 | 52.97609 | -1.52842 | 7169 ft | 255 kts | 193° |
| 2026-05-05 20:04 | 52.95860 | -1.53394 | 6688 ft | 255 kts | 191° |
| 2026-05-05 20:04 | 52.94122 | -1.53882 | 6202 ft | 251 kts | 190° |
| 2026-05-05 20:05 | 52.92424 | -1.54357 | 5707 ft | 249 kts | 190° |
| 2026-05-05 20:05 | 52.90748 | -1.54834 | 5213 ft | 238 kts | 190° |
| 2026-05-05 20:05 | 52.89140 | -1.55299 | 4788 ft | 234 kts | 189° |
| 2026-05-05 20:05 | 52.87501 | -1.55777 | 4389 ft | 244 kts | 189° |
| 2026-05-05 20:06 | 52.85815 | -1.56270 | 3998 ft | 247 kts | 188° |
| 2026-05-05 20:06 | 52.84137 | -1.56273 | 3539 ft | 235 kts | 160° |
| 2026-05-05 20:06 | 52.82826 | -1.54920 | 3040 ft | 216 kts | 124° |
| 2026-05-05 20:06 | 52.82327 | -1.52783 | 2663 ft | 191 kts | 85° |
| 2026-05-05 20:07 | 52.82572 | -1.50770 | 2523 ft | 176 kts | 77° |
| 2026-05-05 20:07 | 52.82734 | -1.48816 | 2196 ft | 169 kts | 80° |
| 2026-05-05 20:07 | 52.82829 | -1.46974 | 2004 ft | 152 kts | 84° |
| 2026-05-05 20:07 | 52.82870 | -1.45221 | 1968 ft | 158 kts | 84° |
| 2026-05-05 20:08 | 52.82904 | -1.43343 | 1603 ft | 166 kts | 85° |
| 2026-05-05 20:08 | 52.82935 | -1.41470 | 1242 ft | 162 kts | 85° |
| 2026-05-05 20:08 | 52.82976 | -1.39641 | 927 ft | 157 kts | 84° |
| 2026-05-05 20:08 | 52.83003 | -1.37823 | 662 ft | 155 kts | 85° |
| 2026-05-05 20:09 | 52.83043 | -1.36058 | 476 ft | 151 kts | 86° |
| 2026-05-05 20:09 | 52.83071 | -1.34321 | 311 ft | 150 kts | 85° |
| 2026-05-05 20:09 | 52.83109 | -1.32771 | 307 ft | 115 kts | 89° |
| 2026-05-05 20:09 | 52.83121 | -1.31709 | 315 ft | 70 kts | 89° |
| 2026-05-05 20:10 | 52.83132 | -1.31087 | 310 ft | 52 kts | 88° |
| 2026-05-05 20:10 | 52.83137 | -1.30771 | 307 ft | 13 kts | 90° |
| 2026-05-05 20:10 | 52.83080 | -1.30683 | 308 ft | 12 kts | 171° |
| 2026-05-05 20:10 | 52.83017 | -1.30701 | 307 ft | 0 kts | 207° |
| 2026-05-05 20:12 | 52.83012 | -1.30705 | 307 ft | 2 kts | 207° |
| 2026-05-05 20:12 | 52.82991 | -1.30732 | 306 ft | 5 kts | 225° |
| 2026-05-05 20:12 | 52.82969 | -1.30807 | 309 ft | 8 kts | 257° |
| 2026-05-05 20:13 | 52.82966 | -1.30896 | 308 ft | 8 kts | 268° |
| 2026-05-05 20:13 | 52.82964 | -1.30986 | 308 ft | 8 kts | 268° |
| 2026-05-05 20:13 | 52.82962 | -1.31076 | 308 ft | 8 kts | 268° |
| 2026-05-05 20:13 | 52.82961 | -1.31166 | 308 ft | 8 kts | 268° |
| 2026-05-05 20:14 | 52.82959 | -1.31256 | 308 ft | 8 kts | 268° |
| 2026-05-05 20:14 | 52.82957 | -1.31345 | 308 ft | 8 kts | 268° |
| 2026-05-05 20:14 | 52.82955 | -1.31434 | 308 ft | 8 kts | 269° |
| 2026-05-05 20:14 | 52.82954 | -1.31525 | 307 ft | 8 kts | 269° |
| 2026-05-05 20:15 | 52.82953 | -1.31617 | 305 ft | 8 kts | 269° |
| 2026-05-05 20:15 | 52.82951 | -1.31708 | 305 ft | 8 kts | 267° |
| 2026-05-05 20:15 | 52.82949 | -1.31799 | 308 ft | 8 kts | 268° |
| 2026-05-05 20:15 | 52.82947 | -1.31891 | 308 ft | 8 kts | 268° |
| 2026-05-05 20:16 | 52.82946 | -1.31983 | 308 ft | 8 kts | 268° |
| 2026-05-05 20:16 | 52.82944 | -1.32086 | 305 ft | 11 kts | 268° |
| 2026-05-05 20:16 | 52.82942 | -1.32209 | 305 ft | 11 kts | 268° |
| 2026-05-05 20:16 | 52.82940 | -1.32333 | 305 ft | 11 kts | 268° |
| 2026-05-05 20:17 | 52.82938 | -1.32456 | 305 ft | 11 kts | 268° |
| 2026-05-05 20:17 | 52.82935 | -1.32584 | 307 ft | 11 kts | 268° |
| 2026-05-05 20:17 | 52.82933 | -1.32716 | 307 ft | 11 kts | 268° |
| 2026-05-05 20:17 | 52.82930 | -1.32848 | 306 ft | 11 kts | 268° |
| 2026-05-05 20:18 | 52.82928 | -1.32980 | 306 ft | 11 kts | 269° |
| 2026-05-05 20:18 | 52.82925 | -1.33113 | 306 ft | 12 kts | 268° |
| 2026-05-05 20:18 | 52.82923 | -1.33202 | 306 ft | 12 kts | 268° |
| 2026-05-05 20:18 | 52.82921 | -1.33337 | 312 ft | 12 kts | 268° |
| 2026-05-05 20:19 | 52.82920 | -1.33471 | 312 ft | 12 kts | 269° |
| 2026-05-05 20:19 | 52.82916 | -1.33609 | 311 ft | 12 kts | 267° |
| 2026-05-05 20:19 | 52.82913 | -1.33749 | 308 ft | 12 kts | 268° |
| 2026-05-05 20:19 | 52.82911 | -1.33889 | 309 ft | 12 kts | 268° |
| 2026-05-05 20:20 | 52.82908 | -1.34038 | 306 ft | 14 kts | 268° |
| 2026-05-05 20:20 | 52.82906 | -1.34200 | 308 ft | 12 kts | 268° |
| 2026-05-05 20:20 | 52.82908 | -1.34342 | 309 ft | 12 kts | 271° |
| 2026-05-05 20:20 | 52.82906 | -1.34487 | 311 ft | 13 kts | 268° |
| 2026-05-05 20:21 | 52.82903 | -1.34645 | 309 ft | 14 kts | 268° |
| 2026-05-05 20:21 | 52.82900 | -1.34804 | 310 ft | 14 kts | 268° |
| 2026-05-05 20:21 | 52.82897 | -1.34964 | 309 ft | 14 kts | 268° |
| 2026-05-05 20:21 | 52.82894 | -1.35129 | 308 ft | 12 kts | 268° |
| 2026-05-05 20:22 | 52.82878 | -1.35243 | 308 ft | 8 kts | 226° |
| 2026-05-05 20:22 | 52.82832 | -1.35269 | 308 ft | 7 kts | 210° |
| 2026-05-05 20:22 | 52.82821 | -1.35312 | 308 ft | 3 kts | 257° |
| 2026-05-05 20:22 | 52.82799 | -1.35333 | 307 ft | 4 kts | 198° |
| 2026-05-05 20:23 | 52.82771 | -1.35339 | 308 ft | 4 kts | 181° |
| 2026-05-05 20:23 | 52.82752 | -1.35340 | 308 ft | 2 kts | 181° |
| 2026-05-05 20:23 | 52.82739 | -1.35340 | 308 ft | 2 kts | 180° |
| 2026-05-05 20:23 | 52.82729 | -1.35339 | 308 ft | 1 kts | 179° |
| 2026-05-05 20:24 | 52.82724 | -1.35339 | 308 ft | 0 kts | 179° |